createdAt,value
2023-04-09T00:01:55.892Z,7.90
2023-04-09T00:07:58.424Z,7.80
2023-04-09T00:14:00.643Z,7.70
2023-04-09T00:20:03.380Z,7.70
2023-04-09T00:26:06.622Z,7.60
2023-04-09T00:32:09.923Z,7.60
2023-04-09T00:38:12.368Z,7.50
2023-04-09T00:44:15.145Z,7.50
2023-04-09T00:50:17.586Z,7.40
2023-04-09T00:56:22.928Z,7.40
2023-04-09T01:02:25.527Z,7.40
2023-04-09T01:08:39.633Z,7.40
2023-04-09T01:14:49.983Z,7.40
2023-04-09T01:21:08.908Z,7.30
2023-04-09T01:27:12.502Z,7.30
2023-04-09T01:33:25.799Z,7.30
2023-04-09T01:39:29.013Z,7.30
2023-04-09T01:45:31.415Z,7.30
2023-04-09T01:51:34.399Z,7.30
2023-04-09T01:57:36.907Z,7.20
2023-04-09T02:03:49.523Z,7.10
2023-04-09T02:09:54.623Z,7.00
2023-04-09T02:15:58.447Z,6.90
2023-04-09T02:22:01.025Z,6.80
2023-04-09T02:28:03.475Z,6.90
2023-04-09T02:34:06.054Z,6.90
2023-04-09T02:40:08.887Z,6.90
2023-04-09T02:46:11.696Z,6.90
2023-04-09T02:52:14.002Z,6.90
2023-04-09T02:58:16.549Z,6.90
2023-04-09T03:04:19.255Z,6.90
2023-04-09T03:10:21.867Z,6.80
2023-04-09T03:16:26.068Z,6.80
2023-04-09T03:22:28.695Z,6.70
2023-04-09T03:28:31.640Z,6.60
2023-04-09T03:34:34.545Z,6.50
2023-04-09T03:40:37.719Z,6.50
2023-04-09T03:46:40.211Z,6.50
2023-04-09T03:52:45.070Z,6.50
2023-04-09T03:58:50.030Z,6.50
2023-04-09T04:04:55.487Z,6.60
2023-04-09T04:11:05.507Z,6.60
2023-04-09T04:17:09.510Z,6.80
2023-04-09T04:23:12.335Z,7.00
2023-04-09T04:29:23.512Z,7.30
2023-04-09T04:35:30.415Z,7.50
2023-04-09T04:41:36.566Z,7.90
2023-04-09T04:47:54.140Z,8.10
2023-04-09T04:53:56.534Z,8.40
2023-04-09T04:59:59.331Z,8.60
2023-04-09T05:06:02.062Z,8.70
2023-04-09T05:12:12.663Z,8.80
2023-04-09T05:18:15.574Z,9.00
2023-04-09T05:24:18.013Z,9.30
2023-04-09T05:30:20.939Z,9.60
2023-04-09T05:36:23.965Z,9.90
2023-04-09T05:42:28.120Z,9.70
2023-04-09T05:48:40.478Z,13.90
2023-04-09T05:54:43.422Z,14.60
2023-04-09T06:00:47.794Z,16.50
2023-04-09T06:06:50.260Z,15.50
2023-04-09T06:12:52.795Z,13.40
2023-04-09T06:18:57.455Z,12.70
2023-04-09T06:25:00.419Z,12.10
2023-04-09T06:31:02.707Z,13.40
2023-04-09T06:37:05.556Z,16.40
2023-04-09T06:43:08.062Z,19.80
2023-04-09T06:49:29.376Z,21.10
2023-04-09T06:55:32.339Z,25.00
2023-04-09T07:01:36.009Z,27.10
2023-04-09T07:07:39.457Z,26.40
2023-04-09T07:13:41.974Z,25.90
2023-04-09T07:19:44.161Z,26.60
2023-04-09T07:25:46.343Z,26.00
2023-04-09T07:31:49.279Z,26.40
2023-04-09T07:37:51.918Z,26.60
2023-04-09T07:43:54.469Z,28.20
2023-04-09T07:49:56.887Z,29.50
2023-04-09T07:55:59.602Z,27.00
2023-04-09T08:02:05.465Z,28.00
2023-04-09T08:08:08.019Z,28.30
2023-04-09T08:14:13.523Z,27.60
2023-04-09T08:20:17.470Z,26.90
2023-04-09T08:26:20.061Z,26.80
2023-04-09T08:32:22.823Z,27.30
2023-04-09T08:38:25.521Z,28.10
2023-04-09T08:44:28.848Z,28.60
2023-04-09T08:50:34.317Z,26.70
2023-04-09T08:56:37.026Z,27.30
2023-04-09T09:02:40.302Z,25.90
2023-04-09T09:08:42.770Z,25.80
2023-04-09T09:14:45.156Z,26.50
2023-04-09T09:20:47.661Z,26.80
2023-04-09T09:26:50.157Z,25.30
2023-04-09T09:33:06.081Z,27.10
2023-04-09T09:39:12.959Z,27.90
2023-04-09T09:45:19.718Z,26.30
2023-04-09T09:51:28.516Z,25.00
2023-04-09T09:57:33.130Z,27.00
2023-04-09T10:03:38.104Z,27.10
2023-04-09T10:09:43.280Z,26.00
2023-04-09T10:15:46.578Z,27.70
2023-04-09T10:22:00.402Z,26.20
2023-04-09T10:28:03.730Z,26.20
2023-04-09T10:34:06.041Z,24.90
2023-04-09T10:40:18.891Z,23.10
2023-04-09T10:46:37.359Z,25.30
2023-04-09T10:52:42.205Z,24.80
2023-04-09T10:58:44.732Z,22.60
2023-04-09T11:04:53.358Z,22.90
2023-04-09T11:10:58.827Z,21.90
2023-04-09T11:17:04.163Z,20.00
2023-04-09T11:23:06.914Z,18.60
2023-04-09T11:29:09.696Z,18.60
2023-04-09T11:35:16.918Z,18.70
2023-04-09T11:41:19.222Z,17.60
2023-04-09T11:47:22.427Z,17.50
2023-04-09T11:53:31.536Z,18.20
2023-04-09T11:59:34.027Z,17.90
2023-04-09T12:05:36.860Z,17.90
2023-04-09T12:11:43.575Z,19.00
2023-04-09T12:17:48.976Z,18.40
2023-04-09T12:23:51.642Z,17.90
2023-04-09T12:29:54.088Z,18.50
2023-04-09T12:35:58.823Z,19.70
2023-04-09T12:42:02.191Z,20.90
2023-04-09T12:48:04.775Z,20.90
2023-04-09T12:54:07.498Z,22.40
2023-04-09T13:00:10.440Z,22.60
2023-04-09T13:06:13.106Z,20.00
2023-04-09T13:12:16.982Z,21.10
2023-04-09T13:18:19.496Z,21.70
2023-04-09T13:24:22.090Z,20.30
2023-04-09T13:30:24.574Z,19.20
2023-04-09T13:36:28.202Z,18.20
2023-04-09T13:42:32.308Z,17.70
2023-04-09T13:48:34.881Z,17.50
2023-04-09T13:54:37.749Z,17.40
2023-04-09T14:00:40.212Z,17.20
2023-04-09T14:06:43.073Z,17.10
2023-04-09T14:12:45.933Z,16.90
2023-04-09T14:18:48.554Z,16.70
2023-04-09T14:24:51.873Z,16.40
2023-04-09T14:30:54.448Z,16.50
2023-04-09T14:36:56.933Z,16.80
2023-04-09T14:43:02.769Z,17.10
2023-04-09T14:49:05.377Z,16.80
2023-04-09T14:55:12.866Z,16.70
2023-04-09T15:01:15.288Z,16.40
2023-04-09T15:07:17.857Z,16.20
2023-04-09T15:13:20.512Z,16.10
2023-04-09T15:19:23.027Z,15.90
2023-04-09T15:25:25.410Z,15.80
2023-04-09T15:31:28.091Z,15.60
2023-04-09T15:37:30.869Z,15.50
2023-04-09T15:43:33.346Z,15.30
2023-04-09T15:49:37.366Z,15.20
2023-04-09T15:55:40.360Z,15.10
2023-04-09T16:01:43.024Z,14.90
2023-04-09T16:07:45.487Z,14.80
2023-04-09T16:13:48.484Z,14.70
2023-04-09T16:19:51.656Z,14.60
2023-04-09T16:25:54.603Z,14.40
2023-04-09T16:31:58.098Z,14.20
2023-04-09T16:38:00.419Z,14.10
2023-04-09T16:44:03.005Z,13.80
2023-04-09T16:50:11.002Z,13.70
2023-04-09T16:56:16.370Z,13.50
2023-04-09T17:02:22.239Z,13.20
2023-04-09T17:08:24.991Z,13.10
2023-04-09T17:14:28.104Z,12.90
2023-04-09T17:20:30.799Z,12.80
2023-04-09T17:26:33.295Z,12.80
2023-04-09T17:32:35.803Z,12.70
2023-04-09T17:38:38.235Z,12.60
2023-04-09T17:44:41.877Z,12.60
2023-04-09T17:50:44.457Z,12.40
2023-04-09T17:56:47.674Z,12.20
2023-04-09T18:02:53.450Z,12.10
2023-04-09T18:08:56.393Z,12.00
2023-04-09T18:14:58.833Z,11.90
2023-04-09T18:21:01.354Z,11.70
2023-04-09T18:27:04.224Z,11.60
2023-04-09T18:33:06.753Z,11.50
2023-04-09T18:39:10.064Z,11.50
2023-04-09T18:45:12.384Z,11.40
2023-04-09T18:51:18.905Z,11.30
2023-04-09T18:57:23.575Z,11.20
2023-04-09T19:03:27.200Z,11.00
2023-04-09T19:09:32.554Z,10.90
2023-04-09T19:15:35.153Z,10.80
2023-04-09T19:21:37.722Z,10.70
2023-04-09T19:27:40.109Z,10.70
2023-04-09T19:33:42.726Z,10.60
2023-04-09T19:39:45.740Z,10.70
2023-04-09T19:45:48.215Z,10.60
2023-04-09T19:51:50.803Z,10.50
2023-04-09T19:57:54.007Z,10.50
2023-04-09T20:03:56.826Z,10.40
2023-04-09T20:09:59.636Z,10.30
2023-04-09T20:16:02.152Z,10.30
2023-04-09T20:22:04.834Z,10.20
2023-04-09T20:28:08.715Z,10.10
2023-04-09T20:34:11.435Z,10.00
2023-04-09T20:40:14.416Z,9.90
2023-04-09T20:46:17.003Z,9.80
2023-04-09T20:52:19.556Z,9.70
2023-04-09T20:58:22.237Z,9.60
2023-04-09T21:04:26.160Z,9.50
2023-04-09T21:10:28.822Z,9.40
2023-04-09T21:16:31.819Z,9.40
2023-04-09T21:22:35.154Z,9.30
2023-04-09T21:28:37.820Z,9.20
2023-04-09T21:34:40.553Z,9.20
2023-04-09T21:40:42.881Z,9.10
2023-04-09T21:46:45.791Z,9.00
2023-04-09T21:52:48.219Z,9.00
2023-04-09T21:58:50.891Z,8.90
2023-04-09T22:04:53.643Z,8.80
2023-04-09T22:10:56.062Z,8.80
2023-04-09T22:17:02.139Z,8.80
2023-04-09T22:23:09.082Z,8.80
2023-04-09T22:29:11.428Z,8.70
2023-04-09T22:35:18.442Z,8.70
2023-04-09T22:41:21.841Z,8.70
2023-04-09T22:47:24.829Z,8.60
2023-04-09T22:53:27.362Z,8.60
2023-04-09T22:59:37.201Z,8.60
2023-04-09T23:05:42.454Z,8.50
2023-04-09T23:11:44.816Z,8.50
2023-04-09T23:17:47.324Z,8.50
2023-04-09T23:23:49.824Z,8.50
2023-04-09T23:29:52.208Z,8.50
2023-04-09T23:35:54.500Z,8.40
2023-04-09T23:41:58.210Z,8.40
2023-04-09T23:48:01.061Z,8.50
2023-04-09T23:54:03.566Z,8.40
